Date,TemperatureHighF,TemperatureAvgF,TemperatureLowF,DewpointHighF,DewpointAvgF,DewpointLowF,HumidityHigh,HumidityAvg,HumidityLow,PressureMaxIn,PressureMinIn,WindSpeedMaxMPH,WindSpeedAvgMPH,GustSpeedMaxMPH,PrecipitationSumIn
2014-1-1,22.7,18.0,12.2,19.8,15.2,9.8,92,88,84,30.27,30.18,6,2,0,0.00
2014-1-2,15.3,10.1,-3.3,10.3,6.2,-6.4,90,84,77,30.50,30.19,7,4,0,0.00
2014-1-3,21.7,8.2,-10.1,16.3,3.2,-13.8,87,80,71,30.51,29.95,21,9,0,0.00
2014-1-4,35.3,28.1,21.6,28.9,21.7,16.1,94,77,67,30.01,29.88,18,9,0,0.00
2014-1-5,12.7,4.1,-6.7,10.3,0.5,-13.4,90,85,72,30.29,30.01,10,7,16,0.00
2014-1-6,-6.8,-10.7,-15.3,-13.0,-17.4,-22.2,80,72,66,30.44,30.29,10,6,20,0.00
2014-1-7,10.4,-0.5,-12.2,3.0,-6.4,-16.9,87,76,66,30.43,30.28,10,4,13,0.00
2014-1-8,14.6,7.7,-0.8,7.0,2.2,-4.0,88,78,65,30.56,30.32,3,1,5,0.00
2014-1-9,29.8,19.0,8.4,28.8,15.2,2.2,96,85,73,30.55,30.17,7,3,10,0.00
2014-1-10,40.1,35.1,29.8,39.6,34.4,28.8,98,97,96,30.16,29.51,13,8,18,0.85
2014-1-11,39.2,34.4,30.4,37.8,31.9,27.3,98,91,77,29.88,29.48,13,5,20,0.01
2014-1-12,46.6,37.9,27.7,38.1,32.6,26.0,94,82,69,29.90,29.60,16,10,24,0.00
2014-1-13,43.3,34.6,26.5,36.8,31.1,24.5,94,87,77,29.82,29.57,6,2,11,0.00
2014-1-14,36.5,29.2,22.0,33.6,24.8,16.8,95,84,68,30.02,29.67,14,6,21,0.01
2014-1-15,23.2,19.4,14.5,17.2,13.2,9.3,83,77,68,30.18,29.89,12,6,17,0.00
2014-1-16,39.3,28.8,14.1,33.3,24.1,8.1,96,83,71,29.89,29.57,16,8,22,0.00
2014-1-17,14.4,11.1,6.4,9.9,6.5,2.1,89,81,77,30.08,29.83,9,5,16,0.00
2014-1-18,26.1,17.0,5.6,23.0,14.0,2.8,91,88,78,30.04,29.65,13,4,20,0.00
2014-1-19,43.4,29.1,12.3,33.3,23.1,9.4,90,79,65,29.99,29.64,19,10,24,0.01
2014-1-20,39.2,32.4,15.3,32.5,28.4,13.0,94,85,74,30.08,29.70,6,3,11,0.00
2014-1-21,15.2,5.3,-1.1,13.0,0.0,-4.6,91,79,65,30.41,30.08,10,4,14,0.00
2014-1-22,20.0,8.7,-0.3,13.4,3.4,-7.5,85,78,71,30.38,30.01,10,6,14,0.00
2014-1-23,6.3,-0.6,-6.7,-2.4,-7.6,-11.3,82,72,64,30.75,30.38,5,3,11,0.00
2014-1-24,30.9,15.0,-6.9,25.8,6.1,-10.9,87,68,51,30.67,29.60,24,13,32,0.01
2014-1-25,35.5,21.9,10.1,31.6,11.4,0.4,87,64,46,29.97,29.56,15,6,20,0.00
2014-1-26,41.3,27.1,5.2,32.5,18.5,-3.4,92,70,57,30.05,29.48,13,8,22,0.02
2014-1-27,5.5,0.9,-3.8,-1.3,-7.2,-10.0,80,68,56,30.56,30.05,8,4,14,0.00
2014-1-28,12.2,2.4,-8.7,0.5,-5.1,-13.0,83,71,55,30.56,30.35,12,3,20,0.00
2014-1-29,30.5,16.5,-1.1,12.2,5.1,-5.5,84,62,42,30.35,30.02,17,7,21,0.00
2014-1-30,33.4,27.0,18.4,29.6,18.4,9.7,91,71,47,30.03,29.69,21,12,30,0.00
2014-1-31,19.0,17.3,14.5,16.8,13.4,9.2,91,84,76,30.22,30.02,4,2,6,0.00
2014-2-1,27.4,22.9,19.0,25.6,20.8,16.1,94,92,86,30.16,29.87,4,3,8,0.00
2014-2-2,19.6,8.7,-8.8,16.2,3.8,-12.6,87,80,69,30.38,30.16,4,2,7,0.00
2014-2-3,21.5,1.3,-16.6,8.6,-5.0,-20.7,87,75,49,30.48,30.38,3,1,3,0.00
2014-2-4,19.7,13.9,0.9,17.7,8.5,-3.6,93,79,57,30.46,30.11,6,2,12,0.00
2014-2-5,20.3,15.2,0.6,17.7,12.0,-3.7,93,87,78,30.56,30.07,8,4,11,0.00
2014-2-6,5.5,-2.1,-11.6,-2.8,-7.8,-15.6,84,76,65,30.61,30.52,11,3,14,0.00
2014-2-7,13.6,1.9,-12.2,3.1,-4.6,-16.0,85,74,58,30.54,30.40,10,3,12,0.00
2014-2-8,19.4,15.0,9.4,16.6,11.0,3.1,91,84,75,30.40,30.17,7,4,9,0.00
2014-2-9,18.8,11.9,-2.9,16.9,7.4,-7.8,92,82,70,30.41,30.16,4,2,8,0.00
2014-2-10,8.8,-2.7,-12.3,-1.3,-9.0,-16.4,85,75,59,30.58,30.41,4,1,6,0.00
2014-2-11,16.0,-2.4,-21.9,3.4,-9.4,-26.3,84,72,53,30.62,30.42,3,1,5,0.00
2014-2-12,30.1,12.7,-6.1,12.3,4.2,-10.3,87,70,43,30.42,30.05,10,2,14,0.00
2014-2-13,37.3,24.6,5.4,29.9,18.0,1.8,88,76,62,30.05,29.64,16,7,21,0.03
2014-2-14,20.3,13.8,4.3,14.3,9.3,0.1,89,82,74,30.07,29.73,7,2,9,0.00
2014-2-15,20.0,9.3,-9.3,16.8,4.6,-13.1,89,81,66,30.18,30.00,9,3,12,0.00
2014-2-16,27.2,20.6,12.8,18.3,15.4,9.9,92,80,67,30.28,29.99,8,3,13,0.03
2014-2-17,35.4,27.6,21.0,31.0,24.2,15.8,94,87,80,30.23,29.76,13,7,20,0.00
2014-2-18,49.6,36.7,20.7,33.1,28.2,18.5,94,73,52,29.98,29.67,17,5,20,0.17
2014-2-19,38.4,32.9,28.5,31.8,28.9,25.7,91,85,76,29.94,29.74,6,2,9,0.00
2014-2-20,51.6,38.8,35.3,51.3,36.6,30.7,99,92,80,29.59,29.19,29,13,46,1.23
2014-2-21,38.9,31.9,25.5,30.6,24.5,17.1,94,75,56,29.91,29.48,23,12,30,0.00
2014-2-22,36.4,27.9,17.9,27.9,21.3,15.4,95,78,47,30.12,29.91,7,1,10,0.00
2014-2-23,28.2,21.8,18.1,17.8,13.2,9.0,78,69,59,30.35,30.12,6,3,9,0.00
2014-2-24,26.5,20.5,14.0,15.8,12.3,9.7,83,71,53,30.41,30.28,8,3,13,0.00
2014-2-25,21.1,14.8,7.8,15.2,8.5,0.3,91,76,61,30.34,30.27,6,3,10,0.00
2014-2-26,20.1,13.8,1.7,11.5,3.5,-3.3,79,63,51,30.37,29.83,18,10,23,0.00
2014-2-27,21.0,16.7,11.3,12.6,7.5,0.6,72,67,61,29.93,29.83,9,6,13,0.00
2014-3-13,48.3,39.6,22.5,39.5,33.3,21.0,94,78,71,30.15,29.87,14,8,18,0.05
2014-3-14,56.7,47.0,39.7,43.3,36.6,31.6,83,68,51,29.91,29.66,19,8,26,0.00
2014-4-1,49.7,44.8,39.9,33.6,32.6,31.7,75,63,51,30.10,29.99,8,2,11,0.00
2014-4-2,49.6,43.3,36.5,39.5,35.1,31.7,84,73,66,30.13,29.94,9,4,16,0.00
2014-4-3,48.9,43.8,39.3,48.1,42.2,34.6,98,94,75,29.96,29.52,13,6,20,2.04
2014-4-4,47.5,39.4,35.3,47.0,35.1,30.4,99,85,71,30.10,29.47,22,8,33,0.00
2014-4-5,54.4,41.2,29.0,35.0,30.8,25.7,90,69,42,30.24,30.10,5,2,10,0.00
2014-4-6,58.3,43.7,28.2,38.8,33.1,25.6,94,69,40,30.15,29.91,8,2,13,0.00
2014-4-7,57.7,49.5,39.5,45.4,38.1,33.1,83,67,41,29.91,29.63,5,2,10,0.00
2014-4-8,61.7,50.2,37.5,43.9,38.2,33.9,94,67,36,29.95,29.69,7,3,17,0.00
2014-4-9,64.3,50.2,31.2,39.2,34.5,28.6,92,59,31,30.06,29.84,14,6,21,0.00
2014-4-10,52.6,51.7,51.2,37.9,37.4,36.9,60,58,55,29.84,29.76,10,9,14,0.00
2014-4-13,68.0,64.8,61.3,63.9,61.8,56.1,98,90,79,29.62,29.36,18,11,24,0.60
2014-4-14,60.9,38.8,30.0,56.3,36.7,27.3,97,92,83,30.06,29.37,21,6,27,0.09
2014-4-15,42.7,33.2,25.8,27.6,23.8,19.0,92,71,40,30.21,30.06,11,2,15,0.04
2014-4-16,55.3,43.4,27.7,34.1,28.7,22.4,83,58,38,30.25,30.02,20,11,30,0.00
2014-4-17,47.1,45.6,44.1,39.2,35.2,32.1,79,67,56,30.27,30.08,14,7,21,0.00
2014-4-18,66.6,51.0,33.9,42.2,36.4,31.6,93,62,28,30.35,30.24,9,2,17,0.00
2014-4-19,73.0,56.3,37.3,41.0,35.1,28.1,78,48,27,30.33,30.16,10,5,15,0.00
2014-4-20,71.2,57.4,50.6,47.4,41.8,36.6,68,57,41,30.18,29.99,10,3,15,0.00
2014-4-21,72.6,64.6,57.6,60.7,53.7,46.2,93,68,51,30.00,29.83,13,4,17,0.00
2014-4-22,65.4,54.2,44.5,49.8,37.6,30.4,77,56,30,30.05,29.86,7,4,11,0.00
2014-4-23,60.6,48.0,35.4,46.5,34.7,29.5,95,63,32,30.18,29.95,9,4,18,0.08
2014-4-24,69.2,57.1,45.6,55.9,45.4,38.9,96,67,39,29.98,29.55,17,6,28,0.06
2014-4-25,74.0,58.9,43.6,52.8,46.1,39.1,98,68,31,29.88,29.61,13,4,22,0.06
2014-4-26,74.4,58.6,45.4,48.9,42.3,32.8,79,56,37,29.91,29.81,13,5,22,0.01
2014-4-27,73.6,56.4,44.3,61.2,47.6,33.2,98,74,47,29.93,29.62,14,7,21,0.41
2014-5-2,54.0,53.5,53.0,45.5,45.1,44.7,75,73,71,29.75,29.72,10,9,16,0.00
2014-5-3,71.9,58.9,46.0,47.4,42.8,39.1,86,59,31,29.92,29.73,13,4,21,0.00
2014-5-4,63.7,56.1,44.0,47.0,40.0,25.4,87,57,36,30.06,29.91,10,3,16,0.00
2014-5-5,69.4,56.8,46.3,47.5,38.3,25.7,63,50,37,29.98,29.82,10,6,18,0.00
2014-5-6,78.0,62.2,44.9,54.5,45.1,36.8,75,55,38,29.92,29.68,12,7,20,0.01
2014-5-7,88.9,75.0,66.0,66.9,60.8,54.0,74,62,43,29.76,29.66,16,8,23,0.00
2014-5-8,87.7,75.5,65.8,66.8,63.6,60.0,98,69,43,29.82,29.72,28,10,39,0.36
2014-5-9,71.5,64.7,50.8,64.8,57.1,47.1,99,78,50,29.88,29.66,21,7,25,0.64
2014-5-10,78.1,63.5,46.4,55.2,48.9,45.3,98,64,34,29.95,29.82,13,3,13,0.00
2014-5-11,84.6,70.9,60.3,69.7,61.9,49.9,89,74,54,29.90,29.77,20,6,21,0.00
2014-5-12,89.4,77.7,65.6,71.7,69.2,64.1,96,77,49,29.89,29.71,25,10,34,0.28
2014-5-13,65.7,55.0,48.1,64.7,52.0,45.0,97,90,82,30.19,29.79,12,2,14,0.21
2014-5-14,58.0,50.2,45.0,48.1,45.0,42.8,96,83,65,30.19,30.02,7,1,8,0.16
2014-5-15,59.0,49.1,42.5,48.0,45.4,40.6,97,88,62,30.04,29.96,17,2,19,0.24
2014-5-16,52.1,44.0,38.5,44.1,40.9,37.1,97,89,67,30.12,29.94,11,2,12,0.15
2014-5-17,61.6,48.4,33.5,45.8,37.5,31.1,98,70,36,30.20,30.11,10,1,11,0.03
2014-5-18,68.6,55.1,38.3,48.3,42.4,36.4,94,66,38,30.26,30.15,15,4,15,0.00
2014-5-19,73.8,62.9,48.8,60.9,52.0,43.1,87,69,51,30.19,29.83,28,8,31,0.04
2014-5-20,85.8,76.5,65.1,69.2,65.5,60.7,86,70,55,29.90,29.77,17,7,18,0.00
2014-5-21,89.3,77.4,67.3,71.9,65.5,53.4,93,69,42,29.95,29.77,8,1,9,0.00
2014-5-22,73.7,64.4,53.6,56.4,52.8,49.6,88,67,46,30.16,29.95,10,1,10,0.00
2014-5-23,80.4,65.4,46.5,56.5,50.6,45.6,97,63,34,30.16,30.08,10,1,15,0.00
2014-5-24,78.8,66.1,49.3,58.5,50.7,44.5,85,59,38,30.19,30.06,10,2,10,0.00
2014-5-25,81.3,70.4,53.8,62.9,56.8,49.0,88,64,44,30.10,29.96,16,4,16,0.00
2014-5-26,88.9,73.1,62.7,70.6,65.1,57.9,98,78,47,30.01,29.88,17,3,18,0.60
2014-5-27,83.2,73.0,65.1,71.6,66.9,63.3,96,82,54,29.94,29.85,12,4,13,0.00
2014-5-28,86.2,71.9,62.6,71.0,66.2,60.8,97,84,52,29.97,29.86,8,1,13,0.33
2014-5-29,84.3,71.3,58.8,72.2,65.2,56.9,94,82,61,30.05,29.96,7,3,16,0.01
2014-5-30,86.9,74.0,61.2,69.8,60.6,53.6,88,66,37,30.11,30.01,6,2,16,0.00
2014-5-31,88.7,76.8,62.7,70.3,63.2,56.6,82,64,46,30.11,29.97,10,4,19,0.00
2014-6-1,88.7,78.1,70.1,72.0,67.1,58.3,88,70,54,30.02,29.81,22,6,45,0.16
2014-6-2,84.4,76.3,70.5,70.4,67.8,64.5,91,76,52,29.87,29.76,15,9,28,0.03
2014-6-3,71.9,71.2,70.5,65.9,65.5,65.0,83,82,81,29.87,29.86,5,4,10,0.00
2014-6-4,70.7,65.5,59.6,68.1,62.3,57.6,99,89,86,29.88,29.64,4,2,13,1.80
2014-6-5,77.1,65.6,54.5,61.0,56.8,53.4,98,76,46,29.96,29.86,6,2,11,0.01
2014-6-6,83.0,70.0,53.9,64.8,59.2,51.3,95,71,48,29.97,29.89,5,1,10,0.00
2014-6-7,79.1,67.3,58.5,65.6,62.1,57.9,99,85,57,29.95,29.69,11,2,21,2.84
2014-6-8,77.3,67.5,58.8,68.6,62.9,58.5,99,87,66,29.98,29.78,10,1,10,0.01
2014-6-9,66.9,57.4,51.9,55.9,50.0,46.9,90,77,61,29.99,29.93,9,0,9,0.00
2014-6-10,63.0,62.2,61.3,62.7,61.9,61.0,99,99,99,29.73,29.70,8,1,10,0.81
2014-6-11,65.9,61.3,61.0,63.8,61.1,60.7,100,99,93,29.73,29.65,2,0,2,0.03
2014-6-22,66.5,66.4,66.2,66.2,66.1,65.9,99,99,99,29.80,29.78,4,2,6,0.92
2014-6-23,81.5,71.8,66.1,74.7,69.5,65.8,100,93,74,29.84,29.78,5,1,8,0.44
2014-6-24,84.8,75.1,66.2,74.5,69.5,65.1,99,84,58,29.90,29.81,2,0,6,0.01
2014-6-25,86.7,75.4,61.4,72.2,66.9,61.0,99,77,51,29.96,29.89,7,1,10,0.00
2014-6-27,84.9,79.0,70.7,74.8,71.3,67.8,91,78,67,29.93,29.89,8,5,0,0.01
2014-6-28,83.5,77.0,70.6,76.3,72.5,67.8,95,86,75,29.96,29.82,17,5,17,0.00
2014-6-29,84.5,76.4,68.2,77.1,72.3,66.9,97,88,75,29.95,29.80,18,5,18,0.24
2014-6-30,86.8,75.5,68.2,80.8,72.9,67.0,98,92,79,29.87,29.59,22,5,22,0.74
2014-7-1,80.7,72.2,65.9,69.5,67.0,64.8,100,85,62,29.83,29.65,11,4,0,0.21
2014-7-2,67.4,62.7,59.4,64.4,59.7,58.0,98,90,76,30.03,29.82,6,1,0,0.01
2014-7-3,77.2,66.3,56.4,64.2,59.4,55.2,98,81,50,30.19,30.02,5,1,0,0.00
2014-7-4,79.1,66.1,50.6,64.3,56.6,50.1,98,75,43,30.30,30.19,5,1,0,0.00
2014-7-5,74.8,65.5,53.9,64.6,59.8,53.2,98,83,61,30.23,30.04,7,2,0,0.22
2014-7-6,75.2,74.8,74.5,71.6,71.4,71.3,90,89,88,29.77,29.74,11,5,12,0.01
2014-7-7,88.0,79.3,70.3,76.2,71.7,68.7,96,79,55,29.75,29.62,13,3,13,0.00
2014-7-8,80.3,74.2,62.1,71.3,66.4,60.6,95,78,58,29.85,29.60,22,5,23,0.01
2014-7-9,62.6,61.6,60.7,61.4,60.4,59.6,97,96,94,29.88,29.85,2,0,2,0.00
2014-7-11,73.9,73.0,72.5,69.0,68.5,68.2,87,86,83,30.06,30.05,3,0,3,0.01
2014-7-12,87.5,78.7,72.7,79.9,73.8,68.2,98,85,73,30.05,29.83,24,3,24,0.05
2014-7-13,85.3,76.1,68.1,74.4,70.5,65.9,98,84,60,29.95,29.86,8,1,8,0.29
2014-7-14,79.7,70.9,57.2,71.9,62.5,51.4,99,76,51,29.92,29.80,12,2,15,0.00
2014-7-15,69.0,60.2,52.5,59.8,54.5,49.9,97,82,66,29.99,29.90,9,2,11,0.00
2014-7-16,77.5,64.1,48.5,62.8,55.6,48.0,98,77,46,30.04,29.99,6,0,7,0.00
2014-7-17,80.3,66.1,50.8,63.7,58.3,50.3,98,79,49,30.08,30.01,9,1,11,0.00
2014-7-18,80.9,68.2,54.3,66.2,60.6,53.7,98,79,51,30.13,30.04,9,1,11,0.00
2014-7-19,80.9,68.0,53.7,66.5,60.7,53.1,99,80,53,30.06,29.98,5,0,6,0.00
2014-7-20,81.7,70.0,56.3,68.1,63.2,55.7,99,81,57,30.04,29.96,9,1,10,0.00
2014-7-21,85.4,73.8,58.8,74.2,67.7,58.0,98,83,66,30.06,29.98,11,2,13,0.00
2014-7-22,87.4,77.5,68.0,78.6,73.0,66.2,97,86,72,30.01,29.91,12,3,13,0.00
2014-7-23,79.6,72.7,60.7,76.5,65.1,57.7,97,78,57,30.11,29.95,13,2,14,0.00
2014-7-24,78.9,65.9,51.7,63.1,57.6,50.9,97,77,50,30.16,29.98,12,1,13,0.00
2014-7-25,74.8,63.8,55.7,67.8,61.0,54.6,97,91,72,30.07,29.83,16,2,18,0.54
2014-7-26,82.1,74.0,67.5,77.1,71.0,63.0,98,90,81,29.87,29.75,11,2,13,0.00
2014-7-27,82.8,75.0,64.2,76.4,67.8,61.3,99,80,54,29.91,29.75,22,2,24,0.00
2014-7-28,74.3,65.3,54.4,61.5,58.2,53.3,97,79,55,30.09,29.91,11,1,11,0.00
2014-7-29,79.4,66.0,50.4,65.6,58.5,49.9,98,79,54,30.09,30.00,16,1,16,0.00
2014-7-30,81.1,68.5,55.0,67.3,61.8,54.4,98,81,54,30.05,29.99,13,1,14,0.00
2014-7-31,81.5,68.5,53.8,69.0,62.3,53.2,99,83,55,30.05,30.00,13,1,13,0.00
2014-8-1,82.7,68.3,60.1,69.4,64.0,59.2,99,87,58,30.07,30.02,7,0,8,0.00
2014-8-6,72.5,68.7,66.4,69.1,67.3,65.5,98,95,89,30.02,29.98,4,0,5,0.01
2014-8-7,73.2,68.4,63.1,68.8,65.2,57.7,98,89,79,30.02,29.94,10,2,11,0.05
2014-8-8,76.5,70.4,65.1,71.5,66.3,62.0,96,87,79,30.00,29.94,14,2,14,0.00
2014-8-9,80.7,72.3,62.7,69.2,65.6,61.1,96,80,60,30.03,29.97,15,2,16,0.00
2014-8-10,82.3,72.8,64.9,75.0,68.8,62.9,98,88,73,30.00,29.91,7,1,7,0.58
2014-8-11,83.2,72.9,62.9,74.5,68.9,59.6,99,88,65,29.93,29.81,12,1,13,0.17
2014-8-12,65.8,61.3,59.8,60.5,59.1,58.3,96,92,79,29.90,29.83,11,2,11,0.01
2014-8-14,64.1,61.2,58.7,60.8,58.0,56.7,94,89,85,30.02,30.00,7,0,7,0.00
2014-8-15,72.7,67.2,55.4,66.8,61.1,51.9,95,81,67,30.06,29.92,8,1,8,0.00
2014-8-16,74.6,69.4,63.4,71.1,67.0,62.5,98,92,83,29.92,29.84,11,2,11,0.02
2014-8-17,78.1,70.7,65.6,72.8,68.3,64.7,99,92,81,29.91,29.84,9,1,10,0.06
2014-8-18,82.8,72.1,62.8,74.1,68.4,62.2,99,89,71,29.90,29.75,9,1,9,0.01
2014-8-19,83.0,72.4,65.3,75.2,69.6,64.7,99,91,71,29.78,29.70,21,2,25,0.41
2014-8-20,78.7,70.2,59.4,74.6,68.2,59.1,99,94,81,29.92,29.79,10,1,12,0.03
2014-8-21,87.3,78.5,70.2,79.8,74.9,69.5,99,89,73,29.91,29.84,9,2,10,0.00
2014-8-22,87.1,76.2,71.7,79.7,74.8,71.4,100,96,77,29.95,29.81,21,3,22,2.34
2014-8-23,81.0,74.4,70.0,78.5,72.4,69.3,100,94,79,29.98,29.86,11,2,12,1.04
2014-8-24,93.2,81.1,68.7,83.3,76.4,68.3,99,87,68,29.93,29.87,8,1,8,0.00
2014-8-25,96.2,81.9,72.7,84.2,77.4,70.2,99,87,62,30.00,29.90,17,2,17,0.00
2014-8-26,86.5,75.5,70.0,77.8,72.3,68.8,97,90,71,30.06,29.96,7,1,9,0.00
2014-8-28,72.2,69.7,69.2,70.7,68.9,68.4,98,97,95,29.97,29.95,4,2,6,0.36
2014-8-29,86.9,74.5,69.2,77.5,71.3,66.3,98,91,69,29.95,29.79,11,3,19,0.51
2014-8-30,84.1,74.6,67.9,75.2,70.9,67.3,99,89,68,29.88,29.80,8,3,12,0.10
2014-8-31,86.3,75.3,65.4,77.1,71.9,65.1,99,90,71,29.91,29.79,5,2,9,0.01
2014-9-1,80.9,73.7,66.5,72.6,69.3,65.8,99,87,67,29.85,29.65,10,4,14,0.07
2014-9-2,83.0,72.5,63.0,71.9,68.0,62.1,98,87,59,29.96,29.81,6,2,9,0.00
2014-9-3,84.4,72.9,58.3,72.8,66.9,57.8,99,83,59,30.01,29.89,7,3,11,0.00
2014-9-4,88.1,77.5,66.8,80.4,72.9,65.9,98,86,73,29.99,29.84,8,4,14,0.69
2014-9-5,86.3,74.5,61.5,78.6,70.1,58.0,96,87,71,30.09,29.89,7,2,13,0.00
2014-9-6,74.6,63.8,53.9,61.2,57.6,53.1,97,82,52,30.18,30.07,2,0,7,0.00
2014-9-7,79.0,63.7,49.9,65.1,55.7,49.4,99,79,44,30.21,30.08,3,0,8,0.01
2014-9-8,78.7,65.8,50.5,63.5,57.4,50.0,99,77,51,30.11,29.90,5,1,12,0.00
2014-9-9,76.9,66.7,62.0,69.9,64.1,59.3,98,92,76,30.02,29.77,8,2,15,0.69
2014-9-10,78.8,70.5,58.8,75.0,68.4,55.9,100,94,75,29.89,29.52,14,5,27,2.29
2014-9-11,58.8,53.4,50.0,55.8,49.6,46.6,92,87,79,30.28,29.89,2,0,7,0.00
2014-9-12,49.8,46.2,44.9,46.7,44.7,43.8,97,94,89,30.29,30.26,0,0,0,0.00
2014-9-16,69.6,54.7,44.9,54.0,48.4,44.1,97,82,47,30.10,30.07,0,0,1,0.01
2014-9-17,67.7,55.3,42.7,59.5,51.3,42.2,99,88,64,30.07,29.94,4,0,7,0.00
2014-9-18,73.6,58.4,44.6,59.7,52.0,44.1,99,82,52,30.11,30.01,4,1,10,0.01
2014-9-19,77.6,63.2,50.0,59.6,55.3,49.5,98,78,50,30.11,29.92,6,2,11,0.01
2014-9-20,81.0,69.0,59.5,73.1,64.4,56.2,95,86,71,29.94,29.78,10,3,15,0.08
2014-9-21,66.4,57.9,49.1,56.2,52.5,48.0,98,83,67,30.14,29.87,2,0,7,0.00
2014-9-22,72.0,55.0,42.6,53.2,47.7,42.1,98,80,44,30.31,30.14,2,0,6,0.01
2014-9-23,75.8,57.7,41.8,59.2,49.9,41.3,99,79,42,30.34,30.22,4,1,11,0.00
2014-9-24,78.1,61.2,49.4,57.7,52.8,48.3,98,78,39,30.31,30.20,4,1,8,0.00
2014-9-25,80.7,65.7,54.7,63.3,57.5,53.1,96,77,47,30.25,30.14,4,0,5,0.00
2014-9-26,82.8,67.5,54.0,66.7,59.4,52.4,97,78,48,30.22,30.13,4,1,8,0.00
2014-9-27,83.5,66.8,56.0,65.7,59.1,54.9,98,79,46,30.20,30.12,3,1,7,0.00
2014-9-28,56.3,54.7,53.1,55.7,54.2,52.6,98,98,98,30.13,30.13,0,0,4,0.00
2014-9-29,84.3,73.0,53.7,65.8,61.6,53.1,99,71,45,30.04,29.90,5,1,8,0.00
2014-9-30,67.5,59.2,52.7,60.1,54.3,49.1,97,84,69,30.00,29.91,5,2,13,0.00
2014-10-1,75.2,62.7,50.2,66.1,57.6,47.8,93,84,66,29.95,29.79,7,2,12,0.10
2014-10-2,69.6,66.2,63.7,67.0,64.8,62.8,99,95,90,29.83,29.64,9,2,15,0.52
2014-10-3,56.0,49.8,43.7,52.1,40.7,32.6,91,71,63,29.92,29.73,9,4,20,0.39
2014-10-4,51.1,44.1,37.4,38.4,34.2,29.2,76,68,56,29.86,29.80,10,4,19,0.00
2014-10-5,60.1,46.9,33.8,47.4,40.5,31.8,96,80,51,29.81,29.64,6,1,12,0.00
2014-10-6,63.3,53.0,44.7,49.3,43.7,36.1,96,74,37,29.70,29.58,13,3,19,0.00
2014-10-7,71.1,56.9,44.6,54.7,49.1,42.7,94,77,48,29.91,29.64,9,2,14,0.00
2014-10-8,68.3,52.7,38.8,49.1,42.4,37.8,98,74,34,30.09,29.90,7,1,14,0.00
2014-10-9,62.6,53.7,47.7,52.9,50.0,44.0,98,88,64,30.13,30.05,2,0,5,0.48
2014-10-10,59.5,50.2,42.6,46.8,43.4,40.6,94,79,56,30.17,30.09,5,1,10,0.00
2014-10-11,61.2,46.5,36.0,47.2,39.9,35.2,98,81,44,30.26,30.12,4,1,9,0.00
2014-10-12,55.2,47.6,37.2,54.6,45.8,36.0,98,94,79,30.12,29.84,5,1,8,0.06
2014-10-13,66.8,60.7,55.3,66.5,60.3,54.7,99,98,93,29.85,29.44,11,4,20,0.79
2014-10-14,63.0,58.9,52.6,61.2,57.6,52.3,99,96,90,29.64,29.41,7,3,14,0.56
2014-10-15,52.6,51.5,50.6,52.3,51.2,50.3,99,99,99,29.71,29.64,4,3,8,0.01
2014-10-19,54.4,51.7,49.3,47.6,46.5,45.3,88,82,77,29.96,29.93,4,2,8,0.01
2014-10-20,68.1,54.7,45.2,51.9,47.2,42.6,96,78,50,30.01,29.85,5,2,10,0.00
2014-10-21,60.0,48.1,39.3,46.9,41.5,38.3,96,80,52,30.25,30.00,6,2,16,0.01
2014-10-22,60.9,44.9,32.8,44.1,38.6,31.9,98,81,49,30.35,30.21,6,2,11,0.00
2014-10-23,60.1,49.2,35.3,48.8,43.3,33.7,97,81,64,30.23,30.05,7,2,13,0.01
2014-10-24,66.7,54.4,40.4,57.3,49.8,39.4,98,86,63,30.09,29.92,6,2,11,0.00
2014-10-25,75.7,59.2,47.2,59.5,48.4,40.3,98,72,32,30.02,29.91,4,1,8,0.00
2014-10-26,55.7,43.6,37.5,41.9,38.2,35.1,95,82,52,30.04,30.00,4,0,7,0.00
2014-11-2,49.5,45.7,43.4,30.5,29.0,25.5,59,52,39,30.22,30.16,13,10,22,0.00
2014-11-3,67.6,55.7,42.5,49.6,39.9,29.9,65,56,48,30.17,29.94,14,9,21,0.00
2014-11-4,60.4,49.2,42.0,53.9,43.7,38.6,94,81,53,30.13,29.90,13,6,17,0.05
2014-11-5,64.3,49.7,34.9,46.5,38.4,33.8,97,70,37,30.17,29.90,11,5,17,0.07
2014-11-6,49.7,41.1,26.6,46.8,36.3,24.6,94,83,67,30.27,29.86,9,4,21,0.06
2014-11-7,48.3,36.6,21.6,35.1,30.0,20.4,96,78,58,30.27,29.79,9,4,14,0.00
2014-11-8,50.0,42.7,29.6,41.3,32.7,24.5,84,68,50,30.04,29.76,8,4,16,0.00
2014-11-9,58.9,44.2,28.8,38.6,33.5,24.8,89,68,45,30.01,29.76,13,5,20,0.00
2014-11-10,67.5,55.1,44.6,49.0,43.8,37.6,82,67,50,29.77,29.45,17,9,24,0.00
2014-11-11,57.1,37.0,28.8,46.8,32.0,22.8,92,82,69,30.25,29.57,7,4,16,0.04
2014-11-12,28.8,27.9,27.0,22.7,21.6,19.7,79,77,75,30.29,30.25,5,3,9,0.00
2014-11-18,20.2,17.1,13.9,12.2,7.8,6.2,75,67,58,30.26,30.08,11,5,17,0.00
2014-11-19,29.9,25.0,19.6,21.6,16.8,11.9,80,71,62,30.15,29.83,10,5,24,0.00
2014-11-20,23.1,20.8,18.1,16.3,14.0,12.3,78,75,73,30.14,30.13,6,3,9,0.00
2014-11-21,36.3,26.5,12.0,12.0,10.7,7.3,81,53,36,30.49,30.36,9,6,16,0.00
2014-11-27,25.5,23.9,21.0,21.8,18.9,14.2,86,81,75,30.47,30.44,4,3,13,0.00
2014-11-29,54.8,50.2,43.3,48.7,46.8,39.7,97,88,80,29.71,29.61,13,8,18,0.00
2014-11-30,49.4,36.9,23.5,48.5,34.7,19.4,97,92,82,30.36,29.63,8,4,13,0.00
2014-12-1,23.5,20.0,13.6,19.4,11.7,7.0,84,70,51,30.70,30.36,7,3,9,0.00
2014-12-2,30.7,23.3,12.2,25.9,19.5,8.7,91,85,78,30.56,30.13,8,4,11,0.00
2014-12-3,39.5,28.3,21.2,25.4,21.4,17.4,93,77,47,30.43,30.15,6,2,8,0.00
2014-12-4,33.1,29.7,24.4,31.3,23.7,18.0,94,78,68,30.42,30.23,3,1,9,0.00
2014-12-5,39.2,35.7,32.7,38.1,34.6,31.3,98,96,94,30.26,30.14,2,0,4,0.02
2014-12-6,40.2,33.3,26.6,34.5,30.5,24.2,97,90,72,30.65,30.25,3,1,9,0.00
2014-12-7,37.1,30.5,23.4,31.2,27.4,21.7,95,88,76,30.66,30.28,7,3,13,0.00
2014-12-8,39.7,35.3,30.9,39.3,34.0,28.0,99,95,87,30.28,30.05,7,3,13,0.03
2014-12-9,35.2,32.4,30.4,32.2,29.7,27.8,92,90,87,30.43,30.19,5,2,9,0.00
2014-12-10,32.3,30.5,27.7,30.0,26.6,23.5,91,85,79,30.44,30.32,2,0,5,0.00
2014-12-11,27.8,27.3,26.6,23.9,23.4,22.8,86,85,84,30.32,30.30,0,0,2,0.00
2014-12-15,46.6,46.1,45.1,46.6,46.0,45.1,100,100,99,29.67,29.63,13,6,16,0.18
2014-12-16,45.1,39.7,32.8,45.0,39.5,32.6,100,99,99,29.99,29.64,13,6,17,0.24
2014-12-21,35.7,35.7,35.7,32.5,32.5,32.5,88,88,88,30.02,30.02,7,7,7,0.00
2014-12-27,34.9,31.9,28.5,30.6,27.7,24.5,86,84,82,30.19,30.10,6,3,9,0.00
2014-12-28,35.5,24.9,19.4,24.7,20.7,17.8,95,85,61,30.30,30.19,5,1,7,0.00
2014-12-29,35.9,25.4,17.1,27.7,21.1,15.7,95,84,66,30.56,30.28,4,1,9,0.00
2014-12-30,20.1,14.3,9.1,16.0,7.1,2.8,87,74,48,30.78,30.56,5,3,8,0.00
2014-12-31,21.6,12.3,2.6,7.9,3.5,-1.8,83,68,51,30.73,30.29,15,8,20,0.00
2015-1-1,30.6,22.7,15.4,19.6,13.9,7.3,77,69,60,30.29,30.08,15,9,22,0.00
2015-1-2,37.7,27.3,15.3,30.7,20.8,13.1,92,77,59,30.35,30.12,6,1,10,0.02